sensor_id;sensor_type;location;lat;lon;timestamp;temperature;humidity
35325;DHT22;35135;47.510;19.036;2023-02-28T00:01:32;21.50;45.10
35325;DHT22;35135;47.510;19.036;2023-02-28T00:03:57;21.50;45.10
35325;DHT22;35135;47.510;19.036;2023-02-28T00:06:23;21.50;45.10
35325;DHT22;35135;47.510;19.036;2023-02-28T00:08:49;21.50;45.00
35325;DHT22;35135;47.510;19.036;2023-02-28T00:11:16;21.50;45.10
35325;DHT22;35135;47.510;19.036;2023-02-28T00:13:44;21.40;45.10
35325;DHT22;35135;47.510;19.036;2023-02-28T00:16:19;21.40;45.00
35325;DHT22;35135;47.510;19.036;2023-02-28T00:18:46;21.40;45.10
35325;DHT22;35135;47.510;19.036;2023-02-28T00:21:12;21.40;45.10
35325;DHT22;35135;47.510;19.036;2023-02-28T00:23:38;21.40;45.10
35325;DHT22;35135;47.510;19.036;2023-02-28T00:26:04;21.40;45.10
35325;DHT22;35135;47.510;19.036;2023-02-28T00:28:30;21.40;45.20
35325;DHT22;35135;47.510;19.036;2023-02-28T00:30:56;21.40;45.20
35325;DHT22;35135;47.510;19.036;2023-02-28T00:33:22;21.40;45.20
35325;DHT22;35135;47.510;19.036;2023-02-28T00:35:48;21.40;45.30
35325;DHT22;35135;47.510;19.036;2023-02-28T00:38:14;21.30;45.30
35325;DHT22;35135;47.510;19.036;2023-02-28T00:40:40;21.30;45.20
35325;DHT22;35135;47.510;19.036;2023-02-28T00:43:06;21.30;45.20
35325;DHT22;35135;47.510;19.036;2023-02-28T00:45:32;21.30;45.20
35325;DHT22;35135;47.510;19.036;2023-02-28T00:47:58;21.30;45.30
35325;DHT22;35135;47.510;19.036;2023-02-28T00:50:24;21.30;45.20
35325;DHT22;35135;47.510;19.036;2023-02-28T00:52:49;21.30;45.30
35325;DHT22;35135;47.510;19.036;2023-02-28T00:55:15;21.30;45.30
35325;DHT22;35135;47.510;19.036;2023-02-28T00:57:41;21.30;45.30
35325;DHT22;35135;47.510;19.036;2023-02-28T01:00:08;21.30;45.30
35325;DHT22;35135;47.510;19.036;2023-02-28T01:02:33;21.30;45.30
35325;DHT22;35135;47.510;19.036;2023-02-28T01:04:59;21.30;45.30
35325;DHT22;35135;47.510;19.036;2023-02-28T01:07:25;21.30;45.30
35325;DHT22;35135;47.510;19.036;2023-02-28T01:09:50;21.30;45.40
35325;DHT22;35135;47.510;19.036;2023-02-28T01:12:16;21.20;45.30
35325;DHT22;35135;47.510;19.036;2023-02-28T01:14:42;21.20;45.30
35325;DHT22;35135;47.510;19.036;2023-02-28T01:17:08;21.20;45.30
35325;DHT22;35135;47.510;19.036;2023-02-28T01:19:34;21.20;45.30
35325;DHT22;35135;47.510;19.036;2023-02-28T01:22:02;21.20;45.30
35325;DHT22;35135;47.510;19.036;2023-02-28T01:24:28;21.20;45.30
35325;DHT22;35135;47.510;19.036;2023-02-28T01:26:54;21.20;45.40
35325;DHT22;35135;47.510;19.036;2023-02-28T01:29:20;21.20;45.30
35325;DHT22;35135;47.510;19.036;2023-02-28T01:31:45;21.20;45.40
35325;DHT22;35135;47.510;19.036;2023-02-28T01:34:11;21.20;45.50
35325;DHT22;35135;47.510;19.036;2023-02-28T01:36:37;21.20;45.40
35325;DHT22;35135;47.510;19.036;2023-02-28T01:39:03;21.20;45.40
35325;DHT22;35135;47.510;19.036;2023-02-28T01:41:31;21.10;45.40
35325;DHT22;35135;47.510;19.036;2023-02-28T01:44:04;21.10;45.40
35325;DHT22;35135;47.510;19.036;2023-02-28T01:46:32;21.10;45.30
35325;DHT22;35135;47.510;19.036;2023-02-28T01:49:18;21.10;45.40
35325;DHT22;35135;47.510;19.036;2023-02-28T01:51:55;21.10;45.30
35325;DHT22;35135;47.510;19.036;2023-02-28T01:54:31;21.10;45.30
35325;DHT22;35135;47.510;19.036;2023-02-28T01:57:05;21.10;45.30
35325;DHT22;35135;47.510;19.036;2023-02-28T01:59:39;21.10;45.40
35325;DHT22;35135;47.510;19.036;2023-02-28T02:02:15;21.10;45.40
35325;DHT22;35135;47.510;19.036;2023-02-28T02:04:50;21.00;45.40
35325;DHT22;35135;47.510;19.036;2023-02-28T02:07:16;21.10;46.10
35325;DHT22;35135;47.510;19.036;2023-02-28T02:09:42;21.00;45.50
35325;DHT22;35135;47.510;19.036;2023-02-28T02:12:28;21.00;45.50
35325;DHT22;35135;47.510;19.036;2023-02-28T02:15:34;21.10;45.50
35325;DHT22;35135;47.510;19.036;2023-02-28T02:17:57;21.00;45.40
35325;DHT22;35135;47.510;19.036;2023-02-28T02:27:17;21.00;45.50
35325;DHT22;35135;47.510;19.036;2023-02-28T02:31:52;21.00;45.50
35325;DHT22;35135;47.510;19.036;2023-02-28T02:39:59;21.00;45.50
35325;DHT22;35135;47.510;19.036;2023-02-28T02:45:25;21.00;45.60
35325;DHT22;35135;47.510;19.036;2023-02-28T02:47:53;21.00;45.60
35325;DHT22;35135;47.510;19.036;2023-02-28T02:50:25;20.90;45.50
35325;DHT22;35135;47.510;19.036;2023-02-28T02:52:55;20.90;45.50
35325;DHT22;35135;47.510;19.036;2023-02-28T02:55:22;20.90;45.50
35325;DHT22;35135;47.510;19.036;2023-02-28T02:57:54;20.90;45.50
35325;DHT22;35135;47.510;19.036;2023-02-28T03:00:26;20.90;45.50
35325;DHT22;35135;47.510;19.036;2023-02-28T03:02:53;20.90;45.60
35325;DHT22;35135;47.510;19.036;2023-02-28T03:05:32;20.90;45.50
35325;DHT22;35135;47.510;19.036;2023-02-28T03:07:59;20.90;45.60
35325;DHT22;35135;47.510;19.036;2023-02-28T03:10:31;20.90;45.60
35325;DHT22;35135;47.510;19.036;2023-02-28T03:15:58;20.90;45.60
35325;DHT22;35135;47.510;19.036;2023-02-28T03:18:51;20.90;45.50
35325;DHT22;35135;47.510;19.036;2023-02-28T03:23:57;20.90;45.50
35325;DHT22;35135;47.510;19.036;2023-02-28T03:26:27;20.90;45.50
35325;DHT22;35135;47.510;19.036;2023-02-28T03:29:13;20.80;45.60
35325;DHT22;35135;47.510;19.036;2023-02-28T03:31:50;20.90;45.60
35325;DHT22;35135;47.510;19.036;2023-02-28T03:34:34;20.90;45.60
35325;DHT22;35135;47.510;19.036;2023-02-28T03:37:12;20.80;45.60
35325;DHT22;35135;47.510;19.036;2023-02-28T03:40:01;20.90;45.60
35325;DHT22;35135;47.510;19.036;2023-02-28T03:42:32;20.80;45.60
35325;DHT22;35135;47.510;19.036;2023-02-28T03:45:04;20.80;45.60
35325;DHT22;35135;47.510;19.036;2023-02-28T03:50:13;20.80;45.60
35325;DHT22;35135;47.510;19.036;2023-02-28T03:52:53;20.80;45.60
35325;DHT22;35135;47.510;19.036;2023-02-28T03:55:20;20.80;45.60
35325;DHT22;35135;47.510;19.036;2023-02-28T03:58:03;20.80;45.60
35325;DHT22;35135;47.510;19.036;2023-02-28T04:00:31;20.80;45.60
35325;DHT22;35135;47.510;19.036;2023-02-28T04:02:59;20.80;45.70
35325;DHT22;35135;47.510;19.036;2023-02-28T04:05:25;20.70;45.60
35325;DHT22;35135;47.510;19.036;2023-02-28T04:07:52;20.80;45.60
35325;DHT22;35135;47.510;19.036;2023-02-28T04:10:19;20.80;45.60
35325;DHT22;35135;47.510;19.036;2023-02-28T04:12:45;20.70;45.50
35325;DHT22;35135;47.510;19.036;2023-02-28T04:15:10;20.70;45.50
35325;DHT22;35135;47.510;19.036;2023-02-28T04:17:36;20.70;45.50
35325;DHT22;35135;47.510;19.036;2023-02-28T04:20:03;20.70;45.50
35325;DHT22;35135;47.510;19.036;2023-02-28T04:22:29;20.70;45.50
35325;DHT22;35135;47.510;19.036;2023-02-28T04:24:54;20.70;45.50
35325;DHT22;35135;47.510;19.036;2023-02-28T04:27:21;20.70;45.50
35325;DHT22;35135;47.510;19.036;2023-02-28T04:29:47;20.70;45.50
35325;DHT22;35135;47.510;19.036;2023-02-28T04:32:13;20.70;45.50
35325;DHT22;35135;47.510;19.036;2023-02-28T04:34:39;20.70;45.50
35325;DHT22;35135;47.510;19.036;2023-02-28T04:37:05;20.70;45.50
35325;DHT22;35135;47.510;19.036;2023-02-28T04:39:36;20.70;45.50
35325;DHT22;35135;47.510;19.036;2023-02-28T04:42:02;20.70;45.60
35325;DHT22;35135;47.510;19.036;2023-02-28T04:44:28;20.70;45.50
35325;DHT22;35135;47.510;19.036;2023-02-28T04:46:54;20.70;45.60
35325;DHT22;35135;47.510;19.036;2023-02-28T04:49:19;20.70;45.50
35325;DHT22;35135;47.510;19.036;2023-02-28T04:51:45;20.70;45.50
35325;DHT22;35135;47.510;19.036;2023-02-28T04:54:11;20.70;45.50
35325;DHT22;35135;47.510;19.036;2023-02-28T04:56:37;20.70;45.70
35325;DHT22;35135;47.510;19.036;2023-02-28T04:59:02;20.70;45.70
35325;DHT22;35135;47.510;19.036;2023-02-28T05:01:32;20.70;45.70
35325;DHT22;35135;47.510;19.036;2023-02-28T05:03:59;20.70;45.70
35325;DHT22;35135;47.510;19.036;2023-02-28T05:06:28;20.70;45.80
35325;DHT22;35135;47.510;19.036;2023-02-28T05:08:54;20.70;45.70
35325;DHT22;35135;47.510;19.036;2023-02-28T05:11:34;20.70;45.70
35325;DHT22;35135;47.510;19.036;2023-02-28T05:14:10;20.70;45.30
35325;DHT22;35135;47.510;19.036;2023-02-28T05:16:37;20.80;45.60
35325;DHT22;35135;47.510;19.036;2023-02-28T05:19:02;20.90;45.60
35325;DHT22;35135;47.510;19.036;2023-02-28T05:21:40;21.00;45.50
35325;DHT22;35135;47.510;19.036;2023-02-28T05:24:11;21.10;45.30
35325;DHT22;35135;47.510;19.036;2023-02-28T05:26:39;21.20;45.10
35325;DHT22;35135;47.510;19.036;2023-02-28T05:29:05;21.40;44.90
35325;DHT22;35135;47.510;19.036;2023-02-28T05:31:32;21.50;44.70
35325;DHT22;35135;47.510;19.036;2023-02-28T05:33:57;21.70;44.40
35325;DHT22;35135;47.510;19.036;2023-02-28T05:36:24;21.80;44.60
35325;DHT22;35135;47.510;19.036;2023-02-28T05:38:51;21.90;43.80
35325;DHT22;35135;47.510;19.036;2023-02-28T05:41:17;22.00;43.80
35325;DHT22;35135;47.510;19.036;2023-02-28T05:43:45;22.10;43.60
35325;DHT22;35135;47.510;19.036;2023-02-28T05:46:12;22.20;43.40
35325;DHT22;35135;47.510;19.036;2023-02-28T05:48:39;22.30;43.30
35325;DHT22;35135;47.510;19.036;2023-02-28T05:51:06;22.40;43.20
35325;DHT22;35135;47.510;19.036;2023-02-28T05:53:33;22.50;43.10
35325;DHT22;35135;47.510;19.036;2023-02-28T05:55:59;22.60;42.90
35325;DHT22;35135;47.510;19.036;2023-02-28T05:58:25;22.70;42.70
35325;DHT22;35135;47.510;19.036;2023-02-28T06:00:54;22.70;42.50
35325;DHT22;35135;47.510;19.036;2023-02-28T06:03:20;22.80;42.50
35325;DHT22;35135;47.510;19.036;2023-02-28T06:05:45;22.90;42.30
35325;DHT22;35135;47.510;19.036;2023-02-28T06:08:11;23.00;42.10
35325;DHT22;35135;47.510;19.036;2023-02-28T06:10:37;23.00;41.90
35325;DHT22;35135;47.510;19.036;2023-02-28T06:13:03;23.00;41.90
35325;DHT22;35135;47.510;19.036;2023-02-28T06:15:30;23.10;41.90
35325;DHT22;35135;47.510;19.036;2023-02-28T06:17:56;23.10;41.80
35325;DHT22;35135;47.510;19.036;2023-02-28T06:20:22;23.00;41.90
35325;DHT22;35135;47.510;19.036;2023-02-28T06:22:48;23.00;42.00
35325;DHT22;35135;47.510;19.036;2023-02-28T06:25:16;23.00;41.90
35325;DHT22;35135;47.510;19.036;2023-02-28T06:27:42;23.00;42.00
35325;DHT22;35135;47.510;19.036;2023-02-28T06:30:10;22.90;42.00
35325;DHT22;35135;47.510;19.036;2023-02-28T06:32:35;22.90;41.90
35325;DHT22;35135;47.510;19.036;2023-02-28T06:35:02;22.80;41.60
35325;DHT22;35135;47.510;19.036;2023-02-28T06:37:29;22.80;41.30
35325;DHT22;35135;47.510;19.036;2023-02-28T06:39:55;22.70;41.20
35325;DHT22;35135;47.510;19.036;2023-02-28T06:42:22;22.70;41.40
35325;DHT22;35135;47.510;19.036;2023-02-28T06:44:50;22.70;41.70
35325;DHT22;35135;47.510;19.036;2023-02-28T06:47:16;22.60;41.70
35325;DHT22;35135;47.510;19.036;2023-02-28T06:49:42;22.60;41.80
35325;DHT22;35135;47.510;19.036;2023-02-28T06:52:10;22.60;42.00
35325;DHT22;35135;47.510;19.036;2023-02-28T06:54:36;22.50;41.90
35325;DHT22;35135;47.510;19.036;2023-02-28T06:57:03;22.50;42.20
35325;DHT22;35135;47.510;19.036;2023-02-28T06:59:28;22.40;41.90
35325;DHT22;35135;47.510;19.036;2023-02-28T07:01:54;22.40;42.10
35325;DHT22;35135;47.510;19.036;2023-02-28T07:04:21;22.40;42.10
35325;DHT22;35135;47.510;19.036;2023-02-28T07:06:46;22.40;42.20
35325;DHT22;35135;47.510;19.036;2023-02-28T07:09:12;22.30;42.10
35325;DHT22;35135;47.510;19.036;2023-02-28T07:11:39;22.30;42.30
35325;DHT22;35135;47.510;19.036;2023-02-28T07:14:06;22.30;42.30
35325;DHT22;35135;47.510;19.036;2023-02-28T07:16:32;22.30;42.40
35325;DHT22;35135;47.510;19.036;2023-02-28T07:18:58;22.30;42.50
35325;DHT22;35135;47.510;19.036;2023-02-28T07:21:23;22.30;42.40
35325;DHT22;35135;47.510;19.036;2023-02-28T07:23:49;22.30;42.40
35325;DHT22;35135;47.510;19.036;2023-02-28T07:26:17;22.30;42.50
35325;DHT22;35135;47.510;19.036;2023-02-28T07:28:45;22.20;42.10
35325;DHT22;35135;47.510;19.036;2023-02-28T07:31:12;22.20;42.10
35325;DHT22;35135;47.510;19.036;2023-02-28T07:33:39;22.20;42.10
35325;DHT22;35135;47.510;19.036;2023-02-28T07:36:11;22.20;42.20
35325;DHT22;35135;47.510;19.036;2023-02-28T07:38:42;22.20;42.20
35325;DHT22;35135;47.510;19.036;2023-02-28T07:41:08;22.20;42.40
35325;DHT22;35135;47.510;19.036;2023-02-28T07:43:35;22.10;42.50
35325;DHT22;35135;47.510;19.036;2023-02-28T07:46:05;22.10;42.40
35325;DHT22;35135;47.510;19.036;2023-02-28T07:48:31;22.20;42.60
35325;DHT22;35135;47.510;19.036;2023-02-28T07:50:57;22.10;42.70
35325;DHT22;35135;47.510;19.036;2023-02-28T07:53:23;22.10;41.10
35325;DHT22;35135;47.510;19.036;2023-02-28T07:55:49;22.10;41.30
35325;DHT22;35135;47.510;19.036;2023-02-28T07:58:14;22.00;41.00
35325;DHT22;35135;47.510;19.036;2023-02-28T08:00:40;22.00;41.10
35325;DHT22;35135;47.510;19.036;2023-02-28T08:03:06;22.00;41.30
35325;DHT22;35135;47.510;19.036;2023-02-28T08:05:31;22.00;41.80
35325;DHT22;35135;47.510;19.036;2023-02-28T08:07:57;22.00;42.00
35325;DHT22;35135;47.510;19.036;2023-02-28T08:10:23;22.00;42.00
35325;DHT22;35135;47.510;19.036;2023-02-28T08:12:49;21.90;42.20
35325;DHT22;35135;47.510;19.036;2023-02-28T08:15:15;21.90;42.20
35325;DHT22;35135;47.510;19.036;2023-02-28T08:17:40;21.90;42.30
35325;DHT22;35135;47.510;19.036;2023-02-28T08:20:07;22.00;42.20
35325;DHT22;35135;47.510;19.036;2023-02-28T08:22:33;21.90;42.30
35325;DHT22;35135;47.510;19.036;2023-02-28T08:24:58;21.90;42.20
35325;DHT22;35135;47.510;19.036;2023-02-28T08:27:24;21.90;42.30
35325;DHT22;35135;47.510;19.036;2023-02-28T08:29:50;22.00;42.20
35325;DHT22;35135;47.510;19.036;2023-02-28T08:32:15;22.00;42.20
35325;DHT22;35135;47.510;19.036;2023-02-28T08:34:41;22.00;42.70
35325;DHT22;35135;47.510;19.036;2023-02-28T08:37:06;21.90;41.90
35325;DHT22;35135;47.510;19.036;2023-02-28T08:39:35;22.00;42.00
35325;DHT22;35135;47.510;19.036;2023-02-28T08:42:02;22.00;41.80
35325;DHT22;35135;47.510;19.036;2023-02-28T08:44:28;22.00;42.10
35325;DHT22;35135;47.510;19.036;2023-02-28T08:46:54;22.00;42.10
35325;DHT22;35135;47.510;19.036;2023-02-28T08:49:19;21.90;42.10
35325;DHT22;35135;47.510;19.036;2023-02-28T08:51:45;21.90;42.00
35325;DHT22;35135;47.510;19.036;2023-02-28T08:54:11;21.90;41.80
35325;DHT22;35135;47.510;19.036;2023-02-28T08:56:45;21.90;41.90
35325;DHT22;35135;47.510;19.036;2023-02-28T08:59:12;21.90;41.90
35325;DHT22;35135;47.510;19.036;2023-02-28T09:01:37;21.90;42.10
35325;DHT22;35135;47.510;19.036;2023-02-28T09:04:03;21.90;42.10
35325;DHT22;35135;47.510;19.036;2023-02-28T09:06:29;21.90;42.30
35325;DHT22;35135;47.510;19.036;2023-02-28T09:08:58;21.80;41.80
35325;DHT22;35135;47.510;19.036;2023-02-28T09:11:29;21.80;42.00
35325;DHT22;35135;47.510;19.036;2023-02-28T09:13:55;21.80;42.20
35325;DHT22;35135;47.510;19.036;2023-02-28T09:16:21;21.80;42.30
35325;DHT22;35135;47.510;19.036;2023-02-28T09:18:47;21.80;42.20
35325;DHT22;35135;47.510;19.036;2023-02-28T09:21:15;21.80;42.00
35325;DHT22;35135;47.510;19.036;2023-02-28T09:23:47;21.80;42.10
35325;DHT22;35135;47.510;19.036;2023-02-28T09:26:15;21.80;42.30
35325;DHT22;35135;47.510;19.036;2023-02-28T09:28:41;21.70;42.00
35325;DHT22;35135;47.510;19.036;2023-02-28T09:31:16;21.80;42.00
35325;DHT22;35135;47.510;19.036;2023-02-28T09:33:49;21.80;42.30
35325;DHT22;35135;47.510;19.036;2023-02-28T09:36:15;21.70;42.30
35325;DHT22;35135;47.510;19.036;2023-02-28T09:38:41;21.70;42.00
35325;DHT22;35135;47.510;19.036;2023-02-28T09:41:16;21.70;42.10
35325;DHT22;35135;47.510;19.036;2023-02-28T09:43:46;21.70;42.30
35325;DHT22;35135;47.510;19.036;2023-02-28T09:46:29;21.70;42.30
35325;DHT22;35135;47.510;19.036;2023-02-28T09:48:57;21.70;42.20
35325;DHT22;35135;47.510;19.036;2023-02-28T09:54:19;21.70;42.00
35325;DHT22;35135;47.510;19.036;2023-02-28T09:56:50;21.70;42.10
35325;DHT22;35135;47.510;19.036;2023-02-28T10:02:01;21.60;42.00
35325;DHT22;35135;47.510;19.036;2023-02-28T10:04:46;21.60;42.00
35325;DHT22;35135;47.510;19.036;2023-02-28T10:10:23;21.60;42.20
35325;DHT22;35135;47.510;19.036;2023-02-28T10:12:53;21.60;42.10
35325;DHT22;35135;47.510;19.036;2023-02-28T10:15:23;21.60;42.00
35325;DHT22;35135;47.510;19.036;2023-02-28T10:17:54;21.60;42.10
35325;DHT22;35135;47.510;19.036;2023-02-28T10:20:23;21.60;42.00
35325;DHT22;35135;47.510;19.036;2023-02-28T10:25:54;21.60;42.10
35325;DHT22;35135;47.510;19.036;2023-02-28T10:28:24;21.60;42.00
35325;DHT22;35135;47.510;19.036;2023-02-28T10:30:52;21.60;41.90
35325;DHT22;35135;47.510;19.036;2023-02-28T10:33:26;21.60;41.90
35325;DHT22;35135;47.510;19.036;2023-02-28T10:35:53;21.60;42.00
35325;DHT22;35135;47.510;19.036;2023-02-28T10:38:33;21.60;41.90
35325;DHT22;35135;47.510;19.036;2023-02-28T10:41:11;21.50;41.80
35325;DHT22;35135;47.510;19.036;2023-02-28T10:43:39;21.50;42.00
35325;DHT22;35135;47.510;19.036;2023-02-28T10:48:40;21.50;41.70
35325;DHT22;35135;47.510;19.036;2023-02-28T10:51:11;21.50;41.70
35325;DHT22;35135;47.510;19.036;2023-02-28T11:01:45;21.50;41.80
35325;DHT22;35135;47.510;19.036;2023-02-28T11:07:03;21.50;41.90
35325;DHT22;35135;47.510;19.036;2023-02-28T11:09:35;21.50;42.00
35325;DHT22;35135;47.510;19.036;2023-02-28T11:12:05;21.40;41.90
35325;DHT22;35135;47.510;19.036;2023-02-28T11:14:38;21.40;41.70
35325;DHT22;35135;47.510;19.036;2023-02-28T11:17:22;21.40;41.90
35325;DHT22;35135;47.510;19.036;2023-02-28T11:19:52;21.40;41.70
35325;DHT22;35135;47.510;19.036;2023-02-28T11:22:21;21.40;42.00
35325;DHT22;35135;47.510;19.036;2023-02-28T11:24:51;21.40;41.70
35325;DHT22;35135;47.510;19.036;2023-02-28T11:29:51;21.40;41.80
35325;DHT22;35135;47.510;19.036;2023-02-28T11:32:22;21.40;41.90
35325;DHT22;35135;47.510;19.036;2023-02-28T11:35:12;21.40;41.90
35325;DHT22;35135;47.510;19.036;2023-02-28T11:37:39;21.40;41.80
35325;DHT22;35135;47.510;19.036;2023-02-28T11:40:25;21.40;42.00
35325;DHT22;35135;47.510;19.036;2023-02-28T11:45:49;21.40;41.90
35325;DHT22;35135;47.510;19.036;2023-02-28T11:48:21;21.40;42.00
35325;DHT22;35135;47.510;19.036;2023-02-28T11:51:10;21.40;41.70
35325;DHT22;35135;47.510;19.036;2023-02-28T11:56:48;21.30;42.00
35325;DHT22;35135;47.510;19.036;2023-02-28T12:08:09;21.40;41.60
35325;DHT22;35135;47.510;19.036;2023-02-28T12:13:20;21.40;41.60
35325;DHT22;35135;47.510;19.036;2023-02-28T12:21:45;21.40;41.50
35325;DHT22;35135;47.510;19.036;2023-02-28T12:35:04;21.40;41.60
35325;DHT22;35135;47.510;19.036;2023-02-28T12:37:16;21.40;41.70
35325;DHT22;35135;47.510;19.036;2023-02-28T12:39:48;21.40;41.70
35325;DHT22;35135;47.510;19.036;2023-02-28T12:42:29;21.40;41.80
35325;DHT22;35135;47.510;19.036;2023-02-28T12:45:21;21.40;41.80
35325;DHT22;35135;47.510;19.036;2023-02-28T12:47:57;21.40;41.90
35325;DHT22;35135;47.510;19.036;2023-02-28T12:50:26;21.40;41.90
35325;DHT22;35135;47.510;19.036;2023-02-28T12:56:02;21.40;42.00
35325;DHT22;35135;47.510;19.036;2023-02-28T12:58:51;21.40;42.00
35325;DHT22;35135;47.510;19.036;2023-02-28T13:02:25;21.40;42.00
35325;DHT22;35135;47.510;19.036;2023-02-28T13:09:54;21.40;42.00
35325;DHT22;35135;47.510;19.036;2023-02-28T13:12:21;21.40;42.20
35325;DHT22;35135;47.510;19.036;2023-02-28T13:14:49;21.40;43.00
35325;DHT22;35135;47.510;19.036;2023-02-28T13:17:20;21.30;42.50
35325;DHT22;35135;47.510;19.036;2023-02-28T13:19:57;21.30;42.60
35325;DHT22;35135;47.510;19.036;2023-02-28T13:22:47;21.40;42.60
35325;DHT22;35135;47.510;19.036;2023-02-28T13:27:49;21.30;42.70
35325;DHT22;35135;47.510;19.036;2023-02-28T13:33:29;21.30;42.80
35325;DHT22;35135;47.510;19.036;2023-02-28T13:38:53;21.30;43.20
35325;DHT22;35135;47.510;19.036;2023-02-28T13:44:07;21.30;42.60
35325;DHT22;35135;47.510;19.036;2023-02-28T13:51:55;21.30;42.60
35325;DHT22;35135;47.510;19.036;2023-02-28T13:57:52;21.30;42.60
35325;DHT22;35135;47.510;19.036;2023-02-28T14:05:32;21.30;42.60
35325;DHT22;35135;47.510;19.036;2023-02-28T14:08:04;21.30;42.70
35325;DHT22;35135;47.510;19.036;2023-02-28T14:10:31;21.30;42.70
35325;DHT22;35135;47.510;19.036;2023-02-28T14:13:17;21.30;42.70
35325;DHT22;35135;47.510;19.036;2023-02-28T14:16:03;21.30;42.80
35325;DHT22;35135;47.510;19.036;2023-02-28T14:18:36;21.30;42.80
35325;DHT22;35135;47.510;19.036;2023-02-28T14:31:38;21.20;43.00
35325;DHT22;35135;47.510;19.036;2023-02-28T14:34:58;21.20;42.90
35325;DHT22;35135;47.510;19.036;2023-02-28T14:37:00;21.20;42.90
35325;DHT22;35135;47.510;19.036;2023-02-28T14:39:27;21.20;42.90
35325;DHT22;35135;47.510;19.036;2023-02-28T14:41:56;21.20;43.60
35325;DHT22;35135;47.510;19.036;2023-02-28T14:44:28;21.20;42.90
35325;DHT22;35135;47.510;19.036;2023-02-28T14:46:59;21.10;43.00
35325;DHT22;35135;47.510;19.036;2023-02-28T14:49:36;21.20;42.90
35325;DHT22;35135;47.510;19.036;2023-02-28T14:54:32;21.10;42.90
35325;DHT22;35135;47.510;19.036;2023-02-28T14:56:58;21.10;42.70
35325;DHT22;35135;47.510;19.036;2023-02-28T14:59:25;21.10;42.60
35325;DHT22;35135;47.510;19.036;2023-02-28T15:01:52;21.10;42.70
35325;DHT22;35135;47.510;19.036;2023-02-28T15:04:27;21.10;42.70
35325;DHT22;35135;47.510;19.036;2023-02-28T15:07:14;21.10;42.90
35325;DHT22;35135;47.510;19.036;2023-02-28T15:09:40;21.10;43.00
35325;DHT22;35135;47.510;19.036;2023-02-28T15:12:06;21.10;43.00
35325;DHT22;35135;47.510;19.036;2023-02-28T15:14:34;21.10;42.90
35325;DHT22;35135;47.510;19.036;2023-02-28T15:17:08;21.10;42.90
35325;DHT22;35135;47.510;19.036;2023-02-28T15:19:37;21.10;43.00
35325;DHT22;35135;47.510;19.036;2023-02-28T15:22:10;21.10;43.10
35325;DHT22;35135;47.510;19.036;2023-02-28T15:24:41;21.10;43.20
35325;DHT22;35135;47.510;19.036;2023-02-28T15:27:22;21.10;43.10
35325;DHT22;35135;47.510;19.036;2023-02-28T15:29:50;21.00;43.10
35325;DHT22;35135;47.510;19.036;2023-02-28T15:32:29;21.10;43.20
35325;DHT22;35135;47.510;19.036;2023-02-28T15:34:56;21.00;43.10
35325;DHT22;35135;47.510;19.036;2023-02-28T15:39:56;21.00;43.00
35325;DHT22;35135;47.510;19.036;2023-02-28T15:42:28;21.00;43.00
35325;DHT22;35135;47.510;19.036;2023-02-28T15:44:54;21.00;43.10
35325;DHT22;35135;47.510;19.036;2023-02-28T15:47:25;21.00;43.00
35325;DHT22;35135;47.510;19.036;2023-02-28T15:49:59;21.00;43.20
35325;DHT22;35135;47.510;19.036;2023-02-28T15:52:39;21.00;43.30
35325;DHT22;35135;47.510;19.036;2023-02-28T15:57:35;21.00;43.30
35325;DHT22;35135;47.510;19.036;2023-02-28T16:00:02;21.00;43.50
35325;DHT22;35135;47.510;19.036;2023-02-28T16:02:34;21.00;43.50
35325;DHT22;35135;47.510;19.036;2023-02-28T16:07:37;21.00;43.50
35325;DHT22;35135;47.510;19.036;2023-02-28T16:10:04;21.00;43.60
35325;DHT22;35135;47.510;19.036;2023-02-28T16:12:32;21.00;43.50
35325;DHT22;35135;47.510;19.036;2023-02-28T16:15:06;21.00;43.60
35325;DHT22;35135;47.510;19.036;2023-02-28T16:17:38;21.00;43.70
35325;DHT22;35135;47.510;19.036;2023-02-28T16:22:43;21.00;43.80
35325;DHT22;35135;47.510;19.036;2023-02-28T16:25:16;21.00;43.90
35325;DHT22;35135;47.510;19.036;2023-02-28T16:27:45;21.00;43.90
35325;DHT22;35135;47.510;19.036;2023-02-28T16:30:23;21.00;43.80
35325;DHT22;35135;47.510;19.036;2023-02-28T16:32:50;21.00;43.90
35325;DHT22;35135;47.510;19.036;2023-02-28T16:35:18;21.00;43.90
35325;DHT22;35135;47.510;19.036;2023-02-28T16:37:44;21.00;43.70
35325;DHT22;35135;47.510;19.036;2023-02-28T16:40:22;21.10;43.90
35325;DHT22;35135;47.510;19.036;2023-02-28T16:42:50;21.20;44.00
35325;DHT22;35135;47.510;19.036;2023-02-28T16:45:27;21.30;44.00
35325;DHT22;35135;47.510;19.036;2023-02-28T16:47:53;21.40;43.80
35325;DHT22;35135;47.510;19.036;2023-02-28T16:50:22;21.60;43.80
35325;DHT22;35135;47.510;19.036;2023-02-28T16:52:48;21.70;43.60
35325;DHT22;35135;47.510;19.036;2023-02-28T16:55:15;21.80;43.50
35325;DHT22;35135;47.510;19.036;2023-02-28T16:57:42;22.00;43.50
35325;DHT22;35135;47.510;19.036;2023-02-28T17:00:12;22.20;43.30
35325;DHT22;35135;47.510;19.036;2023-02-28T17:02:38;22.30;43.10
35325;DHT22;35135;47.510;19.036;2023-02-28T17:05:04;22.40;43.10
35325;DHT22;35135;47.510;19.036;2023-02-28T17:07:30;22.60;43.20
35325;DHT22;35135;47.510;19.036;2023-02-28T17:09:56;22.70;43.20
35325;DHT22;35135;47.510;19.036;2023-02-28T17:12:21;22.80;43.20
35325;DHT22;35135;47.510;19.036;2023-02-28T17:14:47;22.80;43.20
35325;DHT22;35135;47.510;19.036;2023-02-28T17:17:17;22.90;42.90
35325;DHT22;35135;47.510;19.036;2023-02-28T17:19:44;23.00;43.10
35325;DHT22;35135;47.510;19.036;2023-02-28T17:22:10;23.10;43.10
35325;DHT22;35135;47.510;19.036;2023-02-28T17:24:35;23.20;42.70
35325;DHT22;35135;47.510;19.036;2023-02-28T17:27:01;23.30;42.70
35325;DHT22;35135;47.510;19.036;2023-02-28T17:29:27;23.30;42.80
35325;DHT22;35135;47.510;19.036;2023-02-28T17:31:53;23.20;42.60
35325;DHT22;35135;47.510;19.036;2023-02-28T17:34:19;23.30;42.60
35325;DHT22;35135;47.510;19.036;2023-02-28T17:36:49;23.20;42.60
35325;DHT22;35135;47.510;19.036;2023-02-28T17:39:17;23.20;42.60
35325;DHT22;35135;47.510;19.036;2023-02-28T17:41:54;23.10;42.40
35325;DHT22;35135;47.510;19.036;2023-02-28T17:44:20;23.10;42.60
35325;DHT22;35135;47.510;19.036;2023-02-28T17:46:47;23.00;42.60
35325;DHT22;35135;47.510;19.036;2023-02-28T17:49:14;23.00;42.70
35325;DHT22;35135;47.510;19.036;2023-02-28T17:51:40;22.90;42.90
35325;DHT22;35135;47.510;19.036;2023-02-28T17:54:06;22.90;43.00